createdAt,value
2018-06-24T00:01:55.907Z,13.10
2018-06-24T00:04:24.224Z,13.10
2018-06-24T00:06:52.548Z,13.00
2018-06-24T00:09:20.912Z,13.00
2018-06-24T00:11:49.452Z,12.90
2018-06-24T00:14:17.814Z,12.90
2018-06-24T00:16:46.219Z,12.80
2018-06-24T00:19:14.534Z,12.80
2018-06-24T00:21:42.951Z,13.00
2018-06-24T00:24:11.293Z,13.20
2018-06-24T00:26:39.796Z,13.20
2018-06-24T00:29:08.142Z,13.10
2018-06-24T00:31:36.492Z,13.30
2018-06-24T00:34:04.856Z,13.50
2018-06-24T00:36:33.191Z,13.20
2018-06-24T00:39:01.565Z,13.20
2018-06-24T00:41:29.905Z,13.20
2018-06-24T00:43:58.222Z,13.40
2018-06-24T00:46:26.608Z,13.50
2018-06-24T00:48:55.143Z,13.60
2018-06-24T00:51:23.471Z,13.60
2018-06-24T00:53:51.811Z,13.60
2018-06-24T00:56:20.175Z,13.60
2018-06-24T00:58:48.514Z,13.10
2018-06-24T01:01:16.926Z,12.90
2018-06-24T01:03:45.429Z,12.70
2018-06-24T01:06:13.823Z,12.60
2018-06-24T01:08:42.158Z,12.50
2018-06-24T01:11:10.639Z,12.40
2018-06-24T01:13:38.970Z,12.40
2018-06-24T01:16:07.407Z,12.50
2018-06-24T01:18:35.762Z,12.50
2018-06-24T01:21:04.195Z,12.50
2018-06-24T01:23:32.556Z,12.40
2018-06-24T01:26:00.880Z,12.30
2018-06-24T01:30:57.287Z,12.10
2018-06-24T01:33:25.694Z,12.00
2018-06-24T01:35:54.133Z,11.90
2018-06-24T01:38:22.543Z,11.80
2018-06-24T01:40:50.903Z,11.80
2018-06-24T01:43:19.338Z,11.80
2018-06-24T01:45:47.769Z,11.60
2018-06-24T01:48:16.147Z,11.60
2018-06-24T01:50:44.506Z,11.70
2018-06-24T01:53:13.760Z,11.70
2018-06-24T01:55:42.387Z,11.90
2018-06-24T01:58:10.833Z,12.00
2018-06-24T02:00:39.152Z,12.00
2018-06-24T02:03:07.506Z,12.10
2018-06-24T02:05:35.856Z,12.30
2018-06-24T02:08:04.451Z,12.50
2018-06-24T02:10:32.802Z,12.80
2018-06-24T02:13:01.293Z,12.80
2018-06-24T02:15:29.695Z,12.70
2018-06-24T02:17:58.049Z,12.90
2018-06-24T02:20:26.370Z,12.90
2018-06-24T02:22:54.702Z,13.00
2018-06-24T02:25:23.038Z,13.00
2018-06-24T02:27:51.446Z,12.70
2018-06-24T02:30:19.811Z,12.30
2018-06-24T02:32:48.187Z,12.10
2018-06-24T02:35:16.761Z,12.20
2018-06-24T02:37:45.088Z,12.30
2018-06-24T02:40:13.531Z,12.50
2018-06-24T02:42:41.938Z,12.70
2018-06-24T02:45:10.279Z,12.80
2018-06-24T02:47:38.611Z,12.30
2018-06-24T02:50:07.037Z,12.10
2018-06-24T02:52:35.595Z,12.10
2018-06-24T02:55:03.929Z,12.20
2018-06-24T02:57:32.227Z,12.40
2018-06-24T03:00:00.545Z,12.30
2018-06-24T03:02:29.083Z,12.20
2018-06-24T03:04:57.374Z,12.20
2018-06-24T03:07:25.670Z,12.20
2018-06-24T03:09:53.972Z,12.10
2018-06-24T03:12:22.255Z,12.00
2018-06-24T03:14:50.571Z,11.90
2018-06-24T03:17:18.931Z,11.80
2018-06-24T03:19:47.239Z,11.80
2018-06-24T03:22:15.560Z,11.80
2018-06-24T03:24:43.947Z,11.70
2018-06-24T03:27:12.274Z,11.70
2018-06-24T03:29:40.629Z,11.80
2018-06-24T03:32:08.944Z,11.80
2018-06-24T03:34:37.366Z,11.80
2018-06-24T03:37:05.764Z,11.80
2018-06-24T03:39:34.231Z,11.80
2018-06-24T03:42:02.684Z,11.90
2018-06-24T03:44:31.055Z,11.90
2018-06-24T03:46:59.453Z,11.90
2018-06-24T03:49:31.107Z,12.00
2018-06-24T03:51:59.495Z,12.00
2018-06-24T03:54:27.905Z,12.00
2018-06-24T03:56:56.390Z,12.20
2018-06-24T03:59:24.900Z,12.20
2018-06-24T04:01:53.418Z,12.20
2018-06-24T04:04:21.905Z,12.10
2018-06-24T04:06:50.332Z,12.10
2018-06-24T04:09:18.757Z,12.30
2018-06-24T04:11:47.279Z,12.30
2018-06-24T04:14:15.781Z,12.30
2018-06-24T04:16:44.230Z,12.40
2018-06-24T04:19:12.786Z,12.40
2018-06-24T04:21:41.255Z,12.30
2018-06-24T04:24:09.689Z,12.30
2018-06-24T04:26:38.140Z,12.30
2018-06-24T04:29:06.568Z,12.20
2018-06-24T04:31:35.057Z,12.30
2018-06-24T04:34:03.681Z,12.20
2018-06-24T04:36:38.811Z,12.30
2018-06-24T04:39:09.052Z,12.30
2018-06-24T04:41:37.506Z,12.40
2018-06-24T04:44:06.157Z,12.40
2018-06-24T04:46:34.642Z,12.40
2018-06-24T04:49:03.218Z,12.40
2018-06-24T04:51:31.898Z,12.40
2018-06-24T04:54:00.467Z,12.50
2018-06-24T04:56:29.175Z,12.50
2018-06-24T04:58:57.631Z,12.60
2018-06-24T05:01:26.069Z,12.60
2018-06-24T05:03:54.884Z,12.50
2018-06-24T05:06:23.618Z,12.60
2018-06-24T05:08:52.058Z,12.60
2018-06-24T05:11:20.525Z,12.70
2018-06-24T05:13:49.041Z,12.70
2018-06-24T05:16:17.564Z,12.70
2018-06-24T05:18:46.196Z,12.70
2018-06-24T05:21:14.707Z,12.70
2018-06-24T05:23:43.794Z,12.80
2018-06-24T05:26:12.734Z,12.80
2018-06-24T05:28:41.355Z,12.80
2018-06-24T05:33:53.794Z,12.80
2018-06-24T05:39:34.739Z,13.00
2018-06-24T05:42:07.522Z,13.00
2018-06-24T05:52:48.091Z,13.10
2018-06-24T05:55:19.249Z,13.00
2018-06-24T05:57:48.744Z,13.20
2018-06-24T06:00:18.612Z,13.20
2018-06-24T06:02:48.729Z,13.20
2018-06-24T06:05:19.615Z,13.20
2018-06-24T06:10:38.511Z,13.20
2018-06-24T06:13:12.875Z,13.40
2018-06-24T06:15:45.539Z,13.50
2018-06-24T06:18:16.042Z,13.40
2018-06-24T06:23:21.496Z,13.50
2018-06-24T06:25:51.736Z,13.50
2018-06-24T06:28:21.550Z,13.60
